Time;durP1;ratioP1;P1;durP2;ratioP2;P2;SDS_P1;SDS_P2;PMS_P1;PMS_P2;Temp;Humidity;BMP_temperature;BMP_pressure;BME280_temperature;BME280_humidity;BME280_pressure;Samples;Min_cycle;Max_cycle;Signal;HPM_P1;HPM_P2
2022/04/04 00:01:33;;;;;;;0.60;0.60;;;;;;;-5.43;56.83;97869.63;4840595;29;20087;-81
2022/04/04 00:04:00;;;;;;;0.47;0.47;;;;;;;-5.50;56.77;97868.66;4840923;29;20454;-82
2022/04/04 00:06:30;;;;;;;0.90;0.90;;;;;;;-5.57;56.86;97872.94;4854506;29;20430;-80
2022/04/04 00:08:57;;;;;;;0.70;0.70;;;;;;;-5.73;57.66;97872.03;4840512;29;20513;-81
2022/04/04 00:11:24;;;;;;;0.70;0.70;;;;;;;-5.80;57.78;97872.88;4840303;29;20630;-79
2022/04/04 00:13:52;;;;;;;0.50;0.50;;;;;;;-5.77;57.65;97878.63;4840448;29;20103;-80
2022/04/04 00:16:19;;;;;;;0.68;0.68;;;;;;;-5.78;57.40;97873.53;4854653;29;20069;-82
2022/04/04 00:18:46;;;;;;;0.60;0.60;;;;;;;-5.78;57.47;97876.16;4840114;29;20610;-81
2022/04/04 00:21:13;;;;;;;0.47;0.47;;;;;;;-5.82;57.63;97878.31;4840524;29;20103;-82
2022/04/04 00:23:41;;;;;;;0.50;0.50;;;;;;;-5.86;57.47;97884.88;4838988;29;20110;-82
2022/04/04 00:26:08;;;;;;;0.60;0.60;;;;;;;-5.85;57.33;97885.69;4839052;29;20427;-81
2022/04/04 00:28:36;;;;;;;0.50;0.50;;;;;;;-5.94;57.60;97882.31;4841261;29;20057;-81
2022/04/04 00:31:03;;;;;;;0.55;0.55;;;;;;;-5.94;57.60;97888.38;4840971;29;20709;-82
2022/04/04 00:33:35;;;;;;;0.60;0.60;;;;;;;-6.04;58.14;97886.91;4841144;29;20058;-82
2022/04/04 00:36:03;;;;;;;0.60;0.60;;;;;;;-6.08;57.97;97875.91;4840443;29;20414;-82
2022/04/04 00:38:33;;;;;;;0.60;0.60;;;;;;;-6.08;58.40;97881.16;4836146;29;20056;-81
2022/04/04 00:41:00;;;;;;;0.60;0.60;;;;;;;-6.13;58.48;97880.84;4823125;29;20464;-81
2022/04/04 00:43:27;;;;;;;0.60;0.60;;;;;;;-6.19;58.50;97881.50;4820944;29;20111;-82
2022/04/04 00:45:54;;;;;;;0.80;0.80;;;;;;;-6.23;58.71;97881.00;4822177;29;20058;-81
2022/04/04 00:48:21;;;;;;;0.40;0.40;;;;;;;-6.21;58.34;97881.66;4822378;29;20434;-81
2022/04/04 00:50:49;;;;;;;0.63;0.63;;;;;;;-6.34;59.25;97882.16;4820609;29;20082;-81
2022/04/04 00:53:16;;;;;;;0.52;0.52;;;;;;;-6.40;59.46;97892.53;4822359;29;20058;-81
2022/04/04 00:55:44;;;;;;;0.73;0.73;;;;;;;-6.49;59.90;97898.75;4822257;29;20081;-81
2022/04/04 00:58:13;;;;;;;0.75;0.75;;;;;;;-6.63;60.40;97892.34;4823200;29;20055;-82
2022/04/04 01:00:44;;;;;;;0.75;0.75;;;;;;;-6.76;61.02;97898.03;4806258;29;20107;-80
2022/04/04 01:03:11;;;;;;;0.68;0.68;;;;;;;-6.83;61.04;97897.06;4823467;29;20554;-83
2022/04/04 01:05:40;;;;;;;0.63;0.63;;;;;;;-6.93;61.44;97896.41;4824291;29;20058;-81
2022/04/04 01:08:07;;;;;;;0.80;0.80;;;;;;;-7.00;61.69;97897.03;4825478;29;20058;-84
2022/04/04 01:10:34;;;;;;;0.57;0.57;;;;;;;-7.05;62.16;97898.50;4825811;29;20059;-82
2022/04/04 01:13:03;;;;;;;0.60;0.60;;;;;;;-7.09;62.48;97902.41;4839870;29;20083;-84
2022/04/04 01:15:32;;;;;;;0.70;0.70;;;;;;;-7.06;62.35;97910.78;4825995;29;20637;-84
2022/04/04 01:18:00;;;;;;;0.60;0.60;;;;;;;-7.05;62.09;97909.78;4824944;29;20056;-82
2022/04/04 01:20:27;;;;;;;0.70;0.70;;;;;;;-6.99;62.05;97908.31;4826854;29;20511;-84
2022/04/04 01:22:54;;;;;;;0.60;0.60;;;;;;;-6.96;61.92;97902.78;4825661;29;20058;-82
2022/04/04 01:25:28;;;;;;;0.60;0.60;;;;;;;-6.86;61.57;97900.84;4825182;29;20097;-82
2022/04/04 01:27:56;;;;;;;0.60;0.60;;;;;;;-6.86;61.61;97900.00;4824945;29;20481;-83
2022/04/04 01:30:25;;;;;;;0.57;0.57;;;;;;;-6.79;61.54;97904.44;4825207;29;20046;-83
2022/04/04 01:32:56;;;;;;;0.60;0.60;;;;;;;-6.75;61.21;97902.31;4823502;29;20526;-81
2022/04/04 01:35:24;;;;;;;0.70;0.70;;;;;;;-6.73;61.64;97900.38;4821206;29;20054;-83
2022/04/04 01:37:57;;;;;;;0.63;0.63;;;;;;;-6.78;61.34;97902.66;4825101;29;20057;-83
2022/04/04 01:40:25;;;;;;;0.60;0.60;;;;;;;-6.82;61.08;97894.28;4826803;29;20059;-82
2022/04/04 01:42:54;;;;;;;0.60;0.60;;;;;;;-6.75;61.01;97910.19;4826415;29;20085;-82
2022/04/04 01:48:12;;;;;;;0.65;0.65;;;;;;;-6.67;60.82;97912.81;4826597;29;20077;-83
2022/04/04 01:53:26;;;;;;;0.60;0.60;;;;;;;-6.72;60.67;97917.75;4827100;29;20122;-83
2022/04/04 01:55:55;;;;;;;0.68;0.68;;;;;;;-6.79;60.74;97919.38;4826807;29;20085;-82
2022/04/04 01:58:23;;;;;;;0.80;0.80;;;;;;;-6.87;61.21;97919.34;4826369;29;20480;-81
2022/04/04 02:00:52;;;;;;;0.50;0.50;;;;;;;-7.04;62.02;97921.94;4826161;29;20497;-82
2022/04/04 02:03:19;;;;;;;0.52;0.52;;;;;;;-7.19;62.44;97928.75;4840231;29;20058;-82
2022/04/04 02:05:48;;;;;;;0.68;0.68;;;;;;;-7.30;63.07;97931.66;4826229;29;20526;-83
2022/04/04 02:08:17;;;;;;;0.80;0.80;;;;;;;-7.36;63.04;97927.06;4826846;29;20055;-82
2022/04/04 02:10:44;;;;;;;0.50;0.50;;;;;;;-7.35;63.12;97932.13;4827427;29;20046;-83
2022/04/04 02:13:12;;;;;;;0.60;0.60;;;;;;;-7.43;63.15;97927.69;4827724;29;20355;-83
2022/04/04 02:15:43;;;;;;;0.60;0.60;;;;;;;-7.47;63.10;97923.75;4827586;29;20053;-82
2022/04/04 02:18:10;;;;;;;0.60;0.60;;;;;;;-7.54;63.31;97935.00;4828620;29;20131;-83
2022/04/04 02:20:43;;;;;;;0.60;0.60;;;;;;;-7.51;63.45;97935.50;4827011;29;20081;-83
2022/04/04 02:23:11;;;;;;;0.60;0.60;;;;;;;-7.51;63.36;97939.94;4827812;29;20595;-83
2022/04/04 02:25:42;;;;;;;0.68;0.68;;;;;;;-7.56;63.60;97936.97;4838929;29;20058;-84
2022/04/04 02:28:11;;;;;;;0.60;0.60;;;;;;;-7.55;63.66;97939.41;4825279;29;20050;-85
2022/04/04 02:30:40;;;;;;;0.70;0.70;;;;;;;-7.60;63.68;97944.28;4838945;29;20057;-82
2022/04/04 02:33:12;;;;;;;0.60;0.60;;;;;;;-7.55;63.59;97943.84;4824946;29;20432;-83
2022/04/04 02:35:40;;;;;;;0.73;0.73;;;;;;;-7.39;62.94;97941.31;4824846;29;20472;-84
2022/04/04 02:38:08;;;;;;;0.80;0.80;;;;;;;-7.25;62.30;97945.94;4807856;29;20051;-82
2022/04/04 02:40:36;;;;;;;0.60;0.60;;;;;;;-7.25;62.40;97951.19;4825078;29;20051;-82
2022/04/04 02:43:05;;;;;;;0.70;0.70;;;;;;;-7.30;62.86;97958.69;4824647;29;20089;-81
2022/04/04 02:45:33;;;;;;;0.60;0.60;;;;;;;-7.42;63.33;97952.94;4824342;29;20062;-81
2022/04/04 02:48:02;;;;;;;0.70;0.70;;;;;;;-7.50;64.04;97954.66;4824213;29;20082;-82
2022/04/04 02:50:29;;;;;;;0.80;0.80;;;;;;;-7.38;63.76;97957.84;4823222;29;20492;-83
2022/04/04 02:52:56;;;;;;;0.60;0.60;;;;;;;-7.20;62.83;97969.06;4822180;29;20077;-82
2022/04/04 02:58:09;;;;;;;0.60;0.60;;;;;;;-7.01;62.62;97976.69;4824195;29;20094;-83
2022/04/04 03:00:36;;;;;;;0.70;0.70;;;;;;;-7.04;62.72;97977.03;4823806;29;20475;-84
2022/04/04 03:03:09;;;;;;;0.70;0.70;;;;;;;-7.09;62.28;97981.91;4824231;29;20119;-83
2022/04/04 03:05:37;;;;;;;0.65;0.65;;;;;;;-7.08;62.25;97978.31;4823008;29;20062;-82
2022/04/04 03:08:04;;;;;;;0.68;0.68;;;;;;;-7.08;62.54;97982.75;4823637;29;20062;-82
2022/04/04 03:10:33;;;;;;;0.70;0.70;;;;;;;-7.10;62.54;97990.75;4824315;29;20107;-82
2022/04/04 03:13:02;;;;;;;0.73;0.73;;;;;;;-7.18;62.73;97989.91;4822638;29;20503;-83
2022/04/04 03:15:29;;;;;;;0.70;0.70;;;;;;;-7.25;63.41;97992.31;4824106;29;20058;-84
2022/04/04 03:17:57;;;;;;;0.70;0.70;;;;;;;-7.29;63.87;97991.81;4822854;29;20054;-84
2022/04/04 03:20:25;;;;;;;0.80;0.80;;;;;;;-7.36;64.37;98000.47;4823595;29;20050;-84
2022/04/04 03:22:56;;;;;;;0.60;0.60;;;;;;;-7.48;64.85;98003.34;4824446;29;20141;-82
2022/04/04 03:25:24;;;;;;;0.75;0.75;;;;;;;-7.57;65.28;98000.81;4822347;29;20066;-84
2022/04/04 03:27:51;;;;;;;0.70;0.70;;;;;;;-7.63;65.39;98002.25;4822520;29;20095;-83
2022/04/04 03:30:22;;;;;;;0.80;0.80;;;;;;;-7.64;65.50;98003.25;4822733;29;20058;-82
2022/04/04 03:32:50;;;;;;;0.70;0.70;;;;;;;-7.61;65.33;98009.97;4851921;29;20074;-83
2022/04/04 03:35:17;;;;;;;0.70;0.70;;;;;;;-7.53;65.33;98004.78;4828026;29;20111;-82
2022/04/04 03:37:49;;;;;;;0.90;0.90;;;;;;;-7.39;65.20;98008.63;4832575;29;20464;-81
2022/04/04 03:40:19;;;;;;;0.68;0.68;;;;;;;-7.34;64.66;98003.72;4830611;29;20460;-83
2022/04/04 03:42:49;;;;;;;0.68;0.68;;;;;;;-7.27;64.62;98007.38;4821327;29;20056;-82
2022/04/04 03:45:19;;;;;;;0.63;0.63;;;;;;;-7.12;64.35;98011.06;4823087;29;20054;-81
2022/04/04 03:47:48;;;;;;;0.75;0.75;;;;;;;-7.04;63.90;98005.88;4821497;29;20136;-82
2022/04/04 03:50:19;;;;;;;0.60;0.60;;;;;;;-6.98;63.78;98010.47;4497456;29;10000195;-81
2022/04/04 03:52:48;;;;;;;0.60;0.60;;;;;;;-6.94;63.49;98008.34;4836864;29;20751;-84
2022/04/04 03:55:19;;;;;;;0.65;0.65;;;;;;;-6.90;63.49;98019.38;4840034;29;20061;-81
2022/04/04 03:57:48;;;;;;;0.80;0.80;;;;;;;-6.92;63.69;98021.31;4840168;29;20073;-80
2022/04/04 04:00:16;;;;;;;0.60;0.60;;;;;;;-6.98;64.00;98018.34;4841902;29;20041;-83
2022/04/04 04:02:44;;;;;;;0.60;0.60;;;;;;;-7.03;64.22;98015.38;4840462;29;20049;-80
2022/04/04 04:05:12;;;;;;;0.70;0.70;;;;;;;-6.97;64.46;98019.16;4841647;29;20058;-82
2022/04/04 04:07:42;;;;;;;0.70;0.70;;;;;;;-6.88;64.32;98026.09;4841259;29;20054;-82
2022/04/04 04:10:11;;;;;;;0.70;0.70;;;;;;;-6.73;63.76;98026.31;4841015;29;20056;-84
2022/04/04 04:12:40;;;;;;;0.63;0.63;;;;;;;-6.64;63.36;98027.97;4838413;29;20114;-82
2022/04/04 04:15:11;;;;;;;0.70;0.70;;;;;;;-6.54;62.89;98027.84;4838783;29;20509;-85
2022/04/04 04:17:39;;;;;;;0.75;0.75;;;;;;;-6.42;62.53;98028.38;4837839;29;20128;-83
2022/04/04 04:20:23;;;;;;;0.68;0.68;;;;;;;-6.33;62.20;98035.28;4836663;29;20628;-80
2022/04/04 04:22:52;;;;;;;0.80;0.80;;;;;;;-6.28;62.07;98032.97;4840342;29;20491;-82
2022/04/04 04:25:22;;;;;;;0.60;0.60;;;;;;;-6.16;61.40;98029.06;4868960;29;20098;-80
2022/04/04 04:27:51;;;;;;;0.60;0.60;;;;;;;-6.06;61.72;98036.00;4853162;29;20065;-83
2022/04/04 04:30:18;;;;;;;0.80;0.80;;;;;;;-6.00;61.55;98027.44;4838574;29;20104;-82
2022/04/04 04:32:48;;;;;;;0.68;0.68;;;;;;;-5.89;61.02;98027.09;4838519;29;20050;-83
2022/04/04 04:35:16;;;;;;;0.60;0.60;;;;;;;-5.83;60.50;98030.88;4840421;29;20045;-83
2022/04/04 04:37:45;;;;;;;0.70;0.70;;;;;;;-5.70;60.33;98029.41;4841126;29;20081;-81
2022/04/04 04:40:14;;;;;;;0.68;0.68;;;;;;;-5.62;60.32;98023.34;4843199;29;20077;-83
2022/04/04 04:42:43;;;;;;;0.60;0.60;;;;;;;-5.62;61.15;98038.25;4843285;29;20546;-82
2022/04/04 04:45:11;;;;;;;0.60;0.60;;;;;;;-5.56;61.21;98027.91;4843656;29;20428;-82
2022/04/04 04:47:39;;;;;;;0.80;0.80;;;;;;;-5.47;61.21;98034.81;4844246;29;20049;-82
2022/04/04 04:50:12;;;;;;;0.50;0.50;;;;;;;-5.36;61.29;98028.38;4843890;29;20118;-83
2022/04/04 04:52:41;;;;;;;0.50;0.50;;;;;;;-5.21;61.07;98038.22;4843230;29;20153;-83
2022/04/04 04:55:09;;;;;;;0.80;0.80;;;;;;;-5.19;60.76;98031.81;4844199;29;20510;-82
2022/04/04 04:57:39;;;;;;;0.60;0.60;;;;;;;-5.08;60.85;98034.06;4857174;29;20058;-83
2022/04/04 05:00:08;;;;;;;0.77;0.77;;;;;;;-5.01;60.78;98034.22;4841863;29;20050;-83
2022/04/04 05:02:36;;;;;;;0.85;0.85;;;;;;;-4.95;60.82;98036.16;4842457;29;20458;-82
2022/04/04 05:05:04;;;;;;;0.50;0.50;;;;;;;-4.76;60.41;98039.38;4843769;29;20054;-82
2022/04/04 05:07:32;;;;;;;0.60;0.60;;;;;;;-4.67;60.02;98036.56;4841709;29;20062;-81
2022/04/04 05:10:00;;;;;;;0.70;0.70;;;;;;;-4.58;59.88;98035.53;4842125;29;20050;-81
2022/04/04 05:12:29;;;;;;;0.70;0.70;;;;;;;-4.44;59.42;98035.78;4843796;29;20053;-82
2022/04/04 05:14:58;;;;;;;0.80;0.80;;;;;;;-4.21;58.79;98041.91;4843183;29;20050;-83
2022/04/04 05:17:25;;;;;;;0.80;0.80;;;;;;;-4.05;58.13;98035.75;4843169;29;20061;-83
2022/04/04 05:19:58;;;;;;;0.68;0.68;;;;;;;-4.02;58.16;98038.03;4843528;29;20467;-82
2022/04/04 05:22:25;;;;;;;0.70;0.70;;;;;;;-3.98;58.19;98028.75;4843182;29;20058;-82
2022/04/04 05:24:52;;;;;;;0.60;0.60;;;;;;;-3.92;58.05;98038.59;4842791;29;20567;-82
2022/04/04 05:27:28;;;;;;;0.90;0.90;;;;;;;-3.85;57.54;98043.97;4842926;29;20057;-82
2022/04/04 05:29:55;;;;;;;0.70;0.70;;;;;;;-3.69;56.99;98037.78;4842295;29;20110;-82
2022/04/04 05:32:22;;;;;;;0.70;0.70;;;;;;;-3.42;56.34;98039.00;4847521;29;20058;-84
2022/04/04 05:34:49;;;;;;;0.93;0.93;;;;;;;-3.13;55.45;98037.44;4842827;29;20081;-82
2022/04/04 05:37:17;;;;;;;1.00;1.00;;;;;;;-2.89;54.23;98044.25;4832062;29;20049;-83
2022/04/04 05:39:44;;;;;;;0.90;0.90;;;;;;;-2.59;53.58;98033.69;4493315;29;10000339;-83
2022/04/04 05:42:12;;;;;;;0.82;0.82;;;;;;;-2.36;53.14;98038.84;4825394;29;20074;-83
2022/04/04 05:44:42;;;;;;;0.70;0.70;;;;;;;-2.30;52.82;98031.00;4829405;29;20054;-83
2022/04/04 05:47:11;;;;;;;0.80;0.80;;;;;;;-2.13;52.54;98041.34;4822990;29;20058;-81
2022/04/04 05:49:40;;;;;;;0.90;0.90;;;;;;;-2.00;51.80;98038.81;4833960;29;20058;-82
2022/04/04 05:52:09;;;;;;;0.80;0.80;;;;;;;-1.83;51.44;98045.50;4823983;29;20057;-83
2022/04/04 05:54:53;;;;;;;0.80;0.80;;;;;;;-1.55;50.89;98050.03;4826701;29;20341;-82
2022/04/04 05:57:25;;;;;;;1.20;1.20;;;;;;;-1.23;50.08;98050.53;4834409;29;20617;-83
2022/04/04 05:59:52;;;;;;;1.10;1.10;;;;;;;-0.92;49.26;98050.13;4844370;29;20058;-81
2022/04/04 06:02:45;;;;;;;0.80;0.80;;;;;;;-0.71;48.05;98043.91;4834608;29;20110;-82
2022/04/04 06:05:19;;;;;;;0.90;0.90;;;;;;;-0.57;48.14;98052.75;4838554;29;20060;-84
2022/04/04 06:07:47;;;;;;;0.80;0.80;;;;;;;-0.47;47.20;98043.44;4837624;29;20191;-84
2022/04/04 06:10:16;;;;;;;0.80;0.80;;;;;;;-0.38;47.34;98043.25;4831081;29;20076;-84
2022/04/04 06:12:44;;;;;;;0.93;0.93;;;;;;;-0.32;45.90;98047.78;4835936;29;20042;-82
2022/04/04 06:15:12;;;;;;;0.80;0.80;;;;;;;-0.24;45.77;98039.66;4831064;29;20141;-81
2022/04/04 06:17:41;;;;;;;0.80;0.80;;;;;;;-0.04;46.47;98045.84;4820652;29;20123;-81
2022/04/04 06:20:09;;;;;;;0.80;0.80;;;;;;;0.05;43.55;98045.63;4836691;29;20073;-82
2022/04/04 06:22:40;;;;;;;0.90;0.90;;;;;;;-0.05;42.03;98043.38;4830760;29;20055;-81
2022/04/04 06:25:09;;;;;;;1.02;1.02;;;;;;;0.10;41.02;98044.03;4828323;29;20059;-82
2022/04/04 06:27:37;;;;;;;1.02;1.02;;;;;;;0.30;40.19;98051.19;4820487;29;20058;-80
2022/04/04 06:30:10;;;;;;;1.00;1.00;;;;;;;0.41;39.33;98043.47;4819468;29;20062;-81
2022/04/04 06:32:41;;;;;;;1.10;1.10;;;;;;;0.37;39.12;98050.19;4823689;29;20058;-80
2022/04/04 06:35:10;;;;;;;0.90;0.90;;;;;;;0.52;38.81;98049.19;4830262;29;20053;-80
2022/04/04 06:37:37;;;;;;;0.98;0.98;;;;;;;0.66;38.54;98048.19;4821504;29;20583;-81
2022/04/04 06:40:09;;;;;;;1.20;1.15;;;;;;;1.00;38.72;98049.78;4826417;29;20057;-81
2022/04/04 06:42:38;;;;;;;0.80;0.80;;;;;;;1.29;38.30;98051.19;4830477;29;20074;-82
2022/04/04 06:45:09;;;;;;;0.90;0.90;;;;;;;1.50;37.94;98047.44;4825044;29;20107;-81
2022/04/04 06:47:37;;;;;;;0.90;0.90;;;;;;;1.54;36.95;98053.16;4825041;29;20050;-79
2022/04/04 06:50:08;;;;;;;0.98;0.98;;;;;;;1.72;37.23;98055.13;4819345;29;20058;-80
2022/04/04 06:52:35;;;;;;;1.00;1.00;;;;;;;1.81;36.63;98048.53;4821285;29;20042;-82
2022/04/04 06:55:03;;;;;;;1.00;1.00;;;;;;;1.81;35.56;98056.53;4834898;29;20867;-81
2022/04/04 06:57:30;;;;;;;1.00;1.00;;;;;;;1.76;34.73;98051.03;4841623;29;20077;-80
2022/04/04 07:00:00;;;;;;;0.90;0.90;;;;;;;1.71;34.98;98056.16;4825773;29;20054;-81
2022/04/04 07:02:28;;;;;;;1.00;1.00;;;;;;;1.77;35.71;98052.66;4837060;29;20050;-81
2022/04/04 07:04:55;;;;;;;1.10;1.10;;;;;;;1.79;35.40;98052.44;4841095;29;20110;-81
2022/04/04 07:07:24;;;;;;;1.00;1.00;;;;;;;1.97;35.27;98052.56;4841427;29;20050;-82
2022/04/04 07:09:56;;;;;;;1.02;1.02;;;;;;;2.20;35.02;98048.56;4840806;29;20065;-81
2022/04/04 07:12:32;;;;;;;1.08;1.08;;;;;;;2.36;34.97;98054.19;4855605;29;20106;-80
2022/04/04 07:14:59;;;;;;;1.00;1.00;;;;;;;2.57;34.69;98055.69;4855145;29;20479;-81
2022/04/04 07:17:27;;;;;;;1.10;1.10;;;;;;;2.79;34.22;98052.66;4843219;29;20518;-81
2022/04/04 07:20:19;;;;;;;1.00;1.00;;;;;;;3.04;34.24;98052.66;4843746;29;20050;-82
2022/04/04 07:22:49;;;;;;;1.10;1.10;;;;;;;3.01;34.25;98042.41;4854494;29;20088;-81
2022/04/04 07:25:16;;;;;;;1.10;1.10;;;;;;;3.10;35.18;98050.94;4854791;29;20078;-80
2022/04/04 07:27:45;;;;;;;1.10;1.10;;;;;;;3.23;34.76;98053.47;4840626;29;20077;-80
2022/04/04 07:30:16;;;;;;;1.05;1.05;;;;;;;3.31;33.92;98055.84;4839104;29;20061;-80
2022/04/04 07:32:44;;;;;;;1.10;1.10;;;;;;;3.60;36.01;98051.66;4840315;29;20102;-81
2022/04/04 07:35:12;;;;;;;1.02;1.02;;;;;;;3.97;33.46;98050.78;4840793;29;20050;-80
2022/04/04 07:37:49;;;;;;;1.00;1.00;;;;;;;4.07;32.50;98054.56;4840628;29;20058;-80
2022/04/04 07:40:18;;;;;;;1.00;1.00;;;;;;;3.91;32.34;98045.31;4840235;29;20149;-81
2022/04/04 07:42:49;;;;;;;1.10;1.10;;;;;;;3.89;32.83;98043.91;4839015;29;20106;-81
2022/04/04 07:45:19;;;;;;;1.00;1.00;;;;;;;3.90;30.23;98038.38;4840634;29;20049;-81
2022/04/04 07:47:49;;;;;;;1.10;1.10;;;;;;;4.03;30.71;98039.22;4840563;29;20129;-80
2022/04/04 07:50:16;;;;;;;1.08;1.08;;;;;;;4.16;31.18;98044.38;4840344;29;20514;-80
2022/04/04 07:52:47;;;;;;;1.10;1.10;;;;;;;4.45;31.45;98042.72;4840250;29;20042;-80
2022/04/04 07:55:15;;;;;;;1.10;1.10;;;;;;;4.61;30.82;98035.09;4840999;29;20414;-81
2022/04/04 07:57:46;;;;;;;1.00;1.00;;;;;;;4.55;30.84;98031.47;4838866;29;20157;-81
2022/04/04 08:00:17;;;;;;;1.10;1.10;;;;;;;4.55;29.77;98042.97;4838970;29;20144;-81
2022/04/04 08:02:46;;;;;;;0.98;0.98;;;;;;;4.37;30.42;98037.72;4840535;29;20141;-80
2022/04/04 08:05:13;;;;;;;1.10;1.10;;;;;;;4.43;30.36;98033.31;4846487;29;20058;-81
2022/04/04 08:07:43;;;;;;;1.10;1.10;;;;;;;4.18;30.55;98036.97;4843897;29;20094;-81
2022/04/04 08:10:10;;;;;;;1.20;1.20;;;;;;;4.45;31.30;98037.38;4840573;29;20057;-82
2022/04/04 08:12:41;;;;;;;1.23;1.20;;;;;;;5.20;31.51;98026.06;4843013;29;20077;-82
2022/04/04 08:15:09;;;;;;;1.10;1.10;;;;;;;5.55;30.76;98025.22;4843513;29;20148;-81
2022/04/04 08:17:37;;;;;;;1.10;1.10;;;;;;;5.73;30.35;98021.56;4842929;29;20088;-80
2022/04/04 08:20:06;;;;;;;1.20;1.20;;;;;;;6.04;30.16;98020.31;4843136;29;20050;-81
2022/04/04 08:22:41;;;;;;;1.10;1.10;;;;;;;6.07;31.18;98022.53;4842834;29;20060;-83
2022/04/04 08:25:10;;;;;;;1.23;1.20;;;;;;;6.05;36.43;98026.50;4843958;29;20082;-81
2022/04/04 08:27:37;;;;;;;1.02;1.02;;;;;;;5.71;37.82;98028.22;4844238;29;20413;-81
2022/04/04 08:30:07;;;;;;;1.10;1.10;;;;;;;5.20;35.80;98027.94;4843584;29;20518;-80
2022/04/04 08:32:37;;;;;;;1.30;1.20;;;;;;;5.60;36.49;98027.19;4843751;29;20399;-82
2022/04/04 08:35:12;;;;;;;1.10;1.10;;;;;;;5.40;38.35;98024.91;4857583;29;20065;-80
2022/04/04 08:37:41;;;;;;;1.20;1.20;;;;;;;5.83;34.48;98029.00;4858012;29;20058;-81
2022/04/04 08:40:11;;;;;;;1.15;1.15;;;;;;;5.97;34.48;98022.31;4843458;29;20657;-81
2022/04/04 08:42:39;;;;;;;1.20;1.20;;;;;;;6.23;31.51;98020.97;4842245;29;20050;-81
2022/04/04 08:45:07;;;;;;;1.10;1.10;;;;;;;5.85;32.81;98021.53;4842818;29;20065;-81
2022/04/04 08:47:35;;;;;;;1.10;1.10;;;;;;;5.83;34.11;98023.66;4843714;29;20058;-82
2022/04/04 08:50:03;;;;;;;1.10;1.10;;;;;;;5.34;37.59;98023.16;4843324;29;20085;-82
2022/04/04 08:52:30;;;;;;;1.30;1.20;;;;;;;5.42;36.92;98015.59;4842566;29;20045;-81
2022/04/04 08:54:58;;;;;;;1.20;1.20;;;;;;;5.74;35.12;98022.38;4843514;29;20425;-81
2022/04/04 08:57:27;;;;;;;1.10;1.10;;;;;;;5.79;33.55;98017.94;4857682;29;20092;-82
2022/04/04 08:59:55;;;;;;;1.25;1.20;;;;;;;6.34;32.72;98026.50;4857254;29;20133;-82
2022/04/04 09:02:25;;;;;;;1.00;1.00;;;;;;;6.64;30.41;98018.16;4843450;29;20053;-81
2022/04/04 09:04:52;;;;;;;1.20;1.20;;;;;;;6.65;30.16;98007.19;4857697;29;20160;-80
2022/04/04 09:07:22;;;;;;;1.20;1.20;;;;;;;6.60;31.51;98015.16;4843178;29;20054;-80
2022/04/04 09:09:51;;;;;;;1.10;1.10;;;;;;;6.98;34.24;98020.84;4842219;29;20465;-82
2022/04/04 09:12:22;;;;;;;1.20;1.20;;;;;;;7.49;32.26;98006.25;4843103;29;20077;-83
2022/04/04 09:14:52;;;;;;;1.10;1.10;;;;;;;7.70;30.83;98015.41;4837985;29;20054;-79
2022/04/04 09:17:21;;;;;;;1.10;1.10;;;;;;;7.93;36.22;98032.34;4834085;29;20054;-82
2022/04/04 09:19:48;;;;;;;1.27;1.20;;;;;;;8.38;35.29;98017.75;4832070;29;20148;-83
2022/04/04 09:22:19;;;;;;;1.10;1.10;;;;;;;8.95;38.03;98019.88;4835745;29;20171;-82
2022/04/04 09:24:56;;;;;;;1.20;1.20;;;;;;;9.48;33.28;98028.84;4829171;29;20063;-83
2022/04/04 09:27:31;;;;;;;1.13;1.13;;;;;;;9.70;30.12;98022.50;4829649;29;20111;-82
2022/04/04 09:30:03;;;;;;;1.10;1.10;;;;;;;9.42;28.77;98024.50;4825746;29;20394;-82
2022/04/04 09:32:46;;;;;;;1.30;1.20;;;;;;;9.44;27.42;98013.47;4831817;29;20129;-83
2022/04/04 09:35:16;;;;;;;1.30;1.20;;;;;;;9.33;26.49;98023.38;4832701;29;20149;-80
2022/04/04 09:37:51;;;;;;;1.20;1.20;;;;;;;9.35;27.05;98023.91;4502640;29;9999646;-82
2022/04/04 09:40:25;;;;;;;1.20;1.20;;;;;;;9.31;27.34;98025.50;4821700;29;20490;-80
2022/04/04 09:42:58;;;;;;;;;;;;;;;9.72;27.55;98020.31;4828131;29;20084;-79
2022/04/04 09:45:28;;;;;;;1.10;1.10;;;;;;;9.69;27.37;98016.28;4833966;29;20357;-81
2022/04/04 09:47:58;;;;;;;1.10;1.10;;;;;;;9.72;25.65;98018.47;4840347;29;20061;-80
2022/04/04 09:50:39;;;;;;;1.23;1.20;;;;;;;9.67;26.95;98023.84;4823188;29;20122;-81
2022/04/04 09:53:24;;;;;;;1.17;1.17;;;;;;;9.70;25.61;98017.91;4824739;29;20050;-81
2022/04/04 09:55:57;;;;;;;1.20;1.20;;;;;;;9.63;25.59;98025.41;4826117;29;20106;-81
2022/04/04 09:58:28;;;;;;;1.10;1.10;;;;;;;9.46;25.69;98024.78;4826310;29;20125;-82
2022/04/04 10:01:00;;;;;;;1.20;1.20;;;;;;;8.95;26.26;98019.06;4828563;29;20073;-81
2022/04/04 10:03:31;;;;;;;1.20;1.20;;;;;;;9.52;26.46;98015.66;4825874;29;20062;-82
2022/04/04 10:06:12;;;;;;;1.30;1.20;;;;;;;10.60;26.24;98014.94;4828573;29;20514;-80
2022/04/04 10:08:40;;;;;;;1.00;1.00;;;;;;;11.03;26.64;98017.38;4829432;29;20136;-80
2022/04/04 10:11:08;;;;;;;1.00;1.00;;;;;;;11.50;25.80;98027.03;4812248;29;20077;-81
2022/04/04 10:13:42;;;;;;;1.00;1.00;;;;;;;11.31;27.06;98023.28;4827926;29;20104;-82
2022/04/04 10:16:10;;;;;;;1.20;1.20;;;;;;;11.74;25.31;98031.81;4827197;29;20062;-82
2022/04/04 10:18:43;;;;;;;1.10;1.10;;;;;;;11.32;24.22;98023.00;4821901;29;20061;-82
2022/04/04 10:21:11;;;;;;;1.10;1.10;;;;;;;11.60;26.19;98027.00;4826470;29;20536;-83
2022/04/04 10:23:40;;;;;;;1.00;1.00;;;;;;;12.25;27.01;98027.00;4825557;29;20553;-82
2022/04/04 10:26:07;;;;;;;1.10;1.10;;;;;;;12.99;26.46;98025.16;4828982;29;20046;-82
2022/04/04 10:28:37;;;;;;;1.10;1.10;;;;;;;13.13;23.27;98019.88;4846454;29;20141;-82
2022/04/04 10:31:14;;;;;;;1.08;1.08;;;;;;;12.38;23.15;98014.75;4836613;29;20114;-81
2022/04/04 10:33:41;;;;;;;1.00;1.00;;;;;;;12.12;23.22;98019.50;4839749;29;20054;-82
2022/04/04 10:36:08;;;;;;;0.90;0.90;;;;;;;11.77;22.96;98020.44;4827935;29;20099;-81
2022/04/04 10:39:02;;;;;;;1.10;1.10;;;;;;;10.69;22.90;98017.91;4823709;29;20054;-80
2022/04/04 10:41:30;;;;;;;1.05;1.05;;;;;;;10.54;23.47;98026.00;4825051;29;20146;-80
2022/04/04 10:43:58;;;;;;;1.30;1.20;;;;;;;11.12;23.74;98004.94;4828601;29;20065;-81
2022/04/04 10:46:26;;;;;;;1.20;1.20;;;;;;;12.20;24.23;98015.41;4844442;29;20057;-83
2022/04/04 10:48:54;;;;;;;1.20;1.20;;;;;;;13.31;22.87;98014.84;4821034;29;20061;-81
2022/04/04 10:51:34;;;;;;;1.10;1.10;;;;;;;13.73;22.07;98006.00;4830043;29;20053;-81
2022/04/04 10:54:03;;;;;;;1.10;1.10;;;;;;;13.22;20.93;98001.91;4829789;29;20126;-81
2022/04/04 10:56:35;;;;;;;1.20;1.20;;;;;;;13.11;21.60;98008.50;4844160;29;20145;-81
2022/04/04 10:59:15;;;;;;;1.00;1.00;;;;;;;13.66;21.42;98010.97;4822479;29;20050;-82
2022/04/04 11:01:56;;;;;;;1.00;1.00;;;;;;;13.13;22.16;98005.50;4825559;29;20083;-81
2022/04/04 11:04:25;;;;;;;1.10;1.10;;;;;;;14.14;21.71;98007.38;4841064;29;20049;-81
2022/04/04 11:09:55;;;;;;;1.10;1.10;;;;;;;15.90;20.10;98002.28;4828341;29;20060;-81
2022/04/04 11:12:25;;;;;;;1.10;1.10;;;;;;;15.66;19.43;98002.47;4833371;29;20082;-82
2022/04/04 11:15:07;;;;;;;0.93;0.93;;;;;;;15.82;20.40;98003.81;4828437;29;20106;-82
2022/04/04 11:18:00;;;;;;;1.00;1.00;;;;;;;14.63;19.24;98000.72;4827687;29;20050;-80
2022/04/04 11:20:33;;;;;;;1.00;1.00;;;;;;;15.30;19.34;98000.44;4828606;29;20107;-82
2022/04/04 11:23:08;;;;;;;1.00;1.00;;;;;;;15.54;19.90;97998.31;4843048;29;20079;-79
2022/04/04 11:25:38;;;;;;;1.00;1.00;;;;;;;15.52;18.89;98002.47;4836775;29;20137;-82
2022/04/04 11:28:06;;;;;;;1.10;1.10;;;;;;;15.33;18.57;97997.91;4840858;29;20559;-81
2022/04/04 11:30:37;;;;;;;0.82;0.82;;;;;;;13.31;19.39;97998.59;4836961;29;20073;-82
2022/04/04 11:33:11;;;;;;;1.10;1.10;;;;;;;13.34;19.39;97996.13;4830948;29;20054;-82
2022/04/04 11:35:38;;;;;;;1.00;1.00;;;;;;;13.16;19.83;97997.63;4827532;29;20533;-81
2022/04/04 11:38:11;;;;;;;1.00;1.00;;;;;;;13.94;19.49;98000.31;4835248;29;20058;-82
2022/04/04 11:40:49;;;;;;;1.00;1.00;;;;;;;14.83;18.97;97994.16;4838940;29;20069;-81
2022/04/04 11:43:17;;;;;;;0.93;0.93;;;;;;;14.99;19.54;97992.84;4844475;29;20058;-82
2022/04/04 11:45:46;;;;;;;1.02;1.02;;;;;;;15.76;18.50;98002.31;4822363;29;20528;-82
2022/04/04 11:48:23;;;;;;;1.10;1.10;;;;;;;16.15;17.40;98003.66;4820858;29;20125;-82
2022/04/04 11:50:56;;;;;;;1.00;1.00;;;;;;;15.17;17.81;97999.31;4822120;29;20103;-83
2022/04/04 11:53:28;;;;;;;1.02;1.02;;;;;;;15.78;17.38;98003.63;4831264;29;20060;-82
2022/04/04 11:56:10;;;;;;;1.00;1.00;;;;;;;15.40;17.23;97997.53;4822234;29;20496;-82
2022/04/04 11:58:54;;;;;;;0.77;0.77;;;;;;;14.97;18.76;97994.22;4823484;29;20046;-82
2022/04/04 12:01:27;;;;;;;1.00;1.00;;;;;;;15.11;17.55;97998.56;4806607;29;20081;-83